Flight Track Log - Related Links

Times and Time Zones

All times are in EDT time to prevent confusion due to time zone crossing. See the DAL1778 flight status page for this flight to view local times or setup timezone preferences in your user account.

Time Position Orientation Groundspeed Altitude Reporting Facility
EDT Latitude Longitude Course Direction KTS MPH feet Rate Location/Type
Mon 04:29:47 PM 33.6500 -84.4500 284° West 159 183 2,300  Level Atlanta TRACON
Mon 04:30:47 PM 33.6667 -84.5333 284° West 244 281 3,500 2,250 Climbing Atlanta TRACON
Mon 04:31:47 PM 33.6833 -84.6167 284° West 255 293 6,800 2,494 Climbing Atlanta TRACON
Mon 04:33:45 PM 33.6961 -84.7803 275° West 284 327 10,900 1,787 Climbing Atlanta Center
Mon 04:34:45 PM 33.6806 -84.8950 261° West 319 367 12,100 1,700 Climbing Atlanta Center
Mon 04:35:45 PM 33.6692 -85.0197 264° West 373 429 14,300 2,100 Climbing Atlanta Center
Mon 04:36:45 PM 33.6556 -85.1519 263° West 394 453 16,300 1,950 Climbing Atlanta Center
Mon 04:37:45 PM 33.6500 -85.2914 267° West 412 474 18,200 1,650 Climbing Atlanta Center
Mon 04:38:45 PM 33.6506 -85.4489 270° West 422 486 19,600 1,450 Climbing Atlanta Center
Mon 04:39:45 PM 33.6572 -85.5961 273° West 438 504 21,100 1,550 Climbing Atlanta Center
Mon 04:40:45 PM 33.6614 -85.7458 272° West 453 521 22,700 1,350 Climbing Atlanta Center
Mon 04:41:45 PM 33.6617 -85.8783 270° West 453 521 23,800 1,500 Climbing Atlanta Center
Mon 04:42:45 PM 33.6592 -86.0353 269° West 464 534 25,700 1,750 Climbing Atlanta Center
Mon 04:43:45 PM 33.6628 -86.1828 272° West 458 527 27,300 1,550 Climbing Atlanta Center
Mon 04:44:45 PM 33.6644 -86.3225 271° West 446 513 28,800 1,350 Climbing Atlanta Center
Mon 04:45:45 PM 33.6681 -86.4700 272° West 441 507 30,000 1,150 Climbing Atlanta Center
Mon 04:46:45 PM 33.6692 -86.6147 271° West 441 507 31,100 950 Climbing Atlanta Center
Mon 04:47:45 PM 33.6683 -86.7594 270° West 441 507 31,900 186 Climbing Atlanta Center
Mon 04:51:35 PM 33.8461 -87.2658 293° West 441 507 32,000 21 Climbing Memphis Center
Mon 04:52:35 PM 33.9056 -87.3939 299° West 434 499 32,000  Level Memphis Center
Mon 04:53:35 PM 33.9647 -87.5172 300° West 434 499 32,000  Level Memphis Center
Mon 04:54:35 PM 34.0242 -87.6481 299° West 434 499 32,000  Level Memphis Center
Mon 04:55:35 PM 34.0811 -87.7742 299° West 434 499 32,000  Level Memphis Center
Mon 04:56:35 PM 34.1461 -87.9000 302° West 434 499 32,000  Level Memphis Center
Mon 04:57:35 PM 34.2092 -88.0264 301° West 434 499 32,000 -350 Level Memphis Center
Mon 04:58:35 PM 34.2744 -88.1653 300° West 434 499 31,300 -1,600 Descending Memphis Center
Mon 04:59:35 PM 34.3372 -88.3022 299° West 455 524 28,800 -1,750 Descending Memphis Center
Mon 05:00:35 PM 34.4019 -88.4289 302° West 455 524 27,800 -950 Descending Memphis Center
Mon 05:01:35 PM 34.4642 -88.5508 302° West 444 511 26,900 -1,050 Descending Memphis Center
Mon 05:02:35 PM 34.5200 -88.6683 300° West 422 486 25,700 -1,950 Descending Memphis Center
Mon 05:03:35 PM 34.5781 -88.7856 301° West 410 472 23,000 -2,550 Descending Memphis Center
Mon 05:04:35 PM 34.6314 -88.8956 301° West 398 458 20,600 -2,300 Descending Memphis Center
Mon 05:05:35 PM 34.6642 -89.0239 287° West 388 447 18,400 -2,250 Descending Memphis Center
Mon 05:06:35 PM 34.6925 -89.1447 286° West 380 437 16,100 -2,050 Descending Memphis Center
Mon 05:07:35 PM 34.7186 -89.2631 285° West 375 432 14,300 -1,750 Descending Memphis Center
Mon 05:08:35 PM 34.7406 -89.3639 285° West 359 413 12,600 -2,050 Descending Memphis Center
Mon 05:09:35 PM 34.7664 -89.4825 285° West 353 406 10,200 -1,800 Descending Memphis Center
Mon 05:10:35 PM 34.8131 -89.5806 300° West 345 397 9,000 -600 Descending Memphis Center
Mon 05:11:35 PM 34.8572 -89.6586 305° West 303 349 9,000 -900 Level Memphis Center
Mon 05:12:35 PM 34.9325 -89.6706 353° North 256 295 7,200 -1,950 Descending Memphis Center
Mon 05:13:35 PM 35.0033 -89.6725 359° North 256 295 5,100 -2,200 Descending Memphis Center
Mon 05:14:35 PM 35.0536 -89.7203 322° Northwest 226 260 2,800 -1,400 Descending Memphis Center
Mon 05:15:35 PM 35.0561 -89.7939 272° West 206 237 2,300 -450 Descending Memphis Center
Mon 05:16:35 PM 35.0564 -89.8547 270° West 194 223 1,900 -610 Descending Memphis Center
Mon 05:17:33 PM 35.0500 -89.9000 260° West 145 167 1,100 -828 Descending KMEM
Mon 05:21:00 PM 35.0333 -89.9667 309° West  Level FlightAware Approximate
Mon 05:28:00 PM 35.0424 -89.9767 309° West  Level Estimated

Login

Don't have an account? Register now (free) for customized features, flight alerts, and more!